Terminal Aerodrome Forecast
Issued by NWS

Home | Current Version | Previous Version | Text Only | Print | Product List | Glossary On
Versions: 1 2 3 4 5 6 7 8 9 10 11
000
FTUS46 KHNX 281124
TAFMCE
TAF
KMCE 281124Z 2812/2912 00000KT 3SM BR SCT250
      TEMPO 2813/2817 1 1/2SM BR
     FM281900 VRB03KT P6SM FEW250
     FM290600 00000KT 4SM BR SKC=

USA.gov is the U.S. government's official web portal to all federal, state and local government web resources and services.